ADDS METAR Data INFO
IDs: Format: Raw Decoded Include TAF

Data at: 0753 UTC 23 Jul 2018

KBVY 230725Z AUTO 12007KT 5SM BR SCT005 OVC012 21/21 A3017 RMK AO2 RAE12 P0005 T02110211
KBVY 230706Z AUTO 12008KT 3SM -RA BR BKN005 OVC012 21/21 A3016 RMK AO2 P0005 T02110211
KBVY 230656Z AUTO 13007KT 2 1/2SM RA BR FEW006 OVC012 21/21 A3016 RMK AO2 P0002 T02110211
KBVY 230653Z AUTO 13007KT 4SM -RA BR OVC012 21/21 A3017 RMK AO2 RAB49 SLP210 P0002 T02110211
KBVY 230553Z AUTO 11006KT 6SM BR OVC011 22/21 A3016 RMK AO2 SLP208 60001 T02170211 10228 20217 58002
KBVY 230453Z AUTO 12007KT 6SM BR FEW006 OVC012 22/22 A3017 RMK AO2 RAE03 SLP210 P0000 T02170217 402440178
KBVY 230421Z AUTO 13007KT 5SM BR FEW004 OVC013 22/22 A3017 RMK AO2 RAE03 P0000 T02170217
KBVY 230358Z AUTO 13007KT 3SM -RA BR SCT005 BKN016 OVC038 22/22 A3017 RMK AO2 P0000 T02220217
KBVY 230353Z AUTO 13006KT 3SM -RA BR BKN004 BKN015 OVC038 22/22 A3017 RMK AO2 RAB0255E07B51 SLP211 P0001 T02220217
KBVY 230253Z AUTO 13008KT 5SM BR OVC003 22/21 A3017 RMK AO2 RAB39E48 SLP210 P0000 60000 T02170211 51013
KBVY 230228Z AUTO 13009KT 6SM BR OVC004 22/21 A3017 RMK AO2 T02170211
KBVY 230209Z AUTO 14009KT 9SM BKN005 OVC014 23/22 A3017 RMK AO2 T02280217
KBVY 230201Z AUTO 14009KT 10SM SCT005 OVC014 23/22 A3017 RMK AO2 T02280217
KBVY 230153Z AUTO 14011KT 10SM SCT006 OVC016 23/22 A3017 RMK AO2 RAE19 SLP210 P0000 T02280217
KBVY 230114Z AUTO 13010KT 10SM -RA FEW004 BKN022 OVC030 22/21 A3016 RMK AO2 P0000 T02170211
KBVY 230053Z 13009KT 10SM -RA BKN030 BKN037 22/21 A3015 RMK AO2 RAB31 SLP205 P0000 T02170206
KBVY 222353Z 12008KT 10SM SCT035 BKN044 22/21 A3013 RMK AO2 SLP197 60001 T02170206 10244 20217 51009
KBVY 222253Z 12007KT 10SM FEW028 BKN037 23/21 A3012 RMK AO2 SLP195 T02330211
KBVY 222153Z 11006KT 10SM FEW047 23/21 A3011 RMK AO2 SLP191 T02280211
KBVY 222053Z 13009KT 10SM FEW060 SCT075 SCT110 24/22 A3010 RMK AO2 RAE18 SLP188 P0000 60001 T02440222 50004
KBVY 221953Z 14006KT 10SM -RA FEW005 BKN049 OVC060 24/22 A3010 RMK AO2 RAE04B44 SLP188 P0000 T02390222
KBVY 221900Z 13008KT 7SM -RA FEW005 BKN049 OVC060 23/22 A3010 RMK AO2 P0000 T02280222
KBVY 221853Z 12008KT 7SM -RA BKN008 BKN075 OVC110 23/22 A3010 RMK AO2 RAE26B42 SLP187 P0001 T02280217
KBVY 221753Z 14009KT 7SM -RA BKN008 BKN050 OVC100 24/23 A3009 RMK AO2 SLP184 P0001 60014 T02390228 10239 20200 53002
KBVY 221653Z 15010KT 6SM -RA BR BKN006 OVC015 23/22 A3007 RMK AO2 CIG 004V009 SLP178 P0003 T02280222
KBVY 221553Z 12008KT 3SM -RA BR OVC004 22/22 A3007 RMK AO2 SLP177 P0005 T02220217
KBVY 221453Z 13012G18KT 5SM -RA BR OVC004 22/22 A3008 RMK AO2 RAB1358 SLP181 P0001 60005 T02220217 53003
KBVY 221407Z 13011KT 3SM -RA BR OVC002 22/22 A3008 RMK AO2 RAB1358 P0000 T02170217
KBVY 221353Z 11010KT 1 1/4SM BR OVC002 22/21 A3007 RMK AO2 SLP177 T02170211
KBVY 221253Z 10010KT 1 1/2SM BR OVC003 21/21 A3008 RMK AO2 RAE12 SLP179 P0004 T02110206
KBVY 221222Z 09008G14KT 1 3/4SM BR OVC004 21/20 A3008 RMK AO2 RAE12 P0004 T02060200
KBVY 221209Z 08008KT 3SM -RA BR OVC003 21/20 A3008 RMK AO2 P0004 T02060200
KBVY 221153Z 08008KT 1 3/4SM -RA BR OVC002 20/20 A3007 RMK AO2 RAB39 SLP178 P0001 60005 70005 T02000200 10200 20178 58004
KBVY 221118Z 07007G16KT 1SM BR OVC003 20/19 A3008 RMK AO2 T02000194
KBVY 221106Z 06005KT 3/4SM BR OVC004 19/19 A3008 RMK AO2 T01940194
KBVY 221053Z 08007KT 1SM BR OVC004 19/19 A3008 RMK AO2 RAE24 SLP181 P0002 T01940189
KBVY 221043Z AUTO 07006KT 3/4SM BR OVC004 19/19 A3008 RMK AO2 RAE24 P0002 T01940189
KBVY 221034Z AUTO 07005KT 1SM BR OVC005 19/19 A3008 RMK AO2 RAE24 P0001 T01940189
KBVY 221000Z AUTO 06006KT 2 1/2SM -RA BR OVC008 19/18 A3008 RMK AO2 VIS 2V3 P0000 T01940183
KBVY 220953Z AUTO 07006KT 3SM -RA BR OVC008 19/18 A3008 RMK AO2 RAB32 SLP181 P0002 T01940178
KBVY 220926Z AUTO 06006KT 10SM OVC009 19/18 A3008 RMK AO2 T01940178
KBVY 220853Z AUTO 07005KT 10SM OVC014 19/17 A3009 RMK AO2 SLP182 T01890172 56004
KBVY 220846Z AUTO 07005KT 10SM OVC014 19/17 A3009 RMK AO2 T01890172
KBVY 220824Z AUTO 07004KT 10SM FEW011 BKN016 OVC065 19/17 A3009 RMK AO2 T01890172
KBVY 220810Z AUTO 06004KT 10SM SCT011 OVC070 19/17 A3009 RMK AO2 T01890172
KBVY 220802Z AUTO 07004KT 10SM BKN010 BKN070 19/17 A3009 RMK AO2 T01890172
KBVY 220753Z AUTO 06005KT 10SM SCT010 BKN075 BKN090 18/17 A3009 RMK AO2 SLP184 T01830172
KBVY 220653Z AUTO 07004KT 10SM OVC085 18/17 A3009 RMK AO2 SLP184 T01830167
KBVY 220553Z AUTO 06004KT 10SM FEW012 BKN090 18/16 A3010 RMK AO2 SLP187 T01780161 10189 20178 56010
KBVY 220537Z AUTO 05004KT 10SM SCT013 BKN085 18/16 A3010 RMK AO2 T01780161
KBVY 220453Z AUTO 08005KT 10SM BKN014 18/16 A3010 RMK AO2 SLP189 T01780161 402390128
KBVY 220440Z AUTO 07003KT 10SM BKN015 18/16 A3010 RMK AO2 T01780161
KBVY 220353Z AUTO 05003KT 10SM FEW016 18/16 A3012 RMK AO2 SLP193 T01830156
KBVY 220253Z AUTO 08004KT 10SM CLR 18/16 A3013 RMK AO2 SLP197 T01830156 58002
KBVY 220214Z AUTO 09005KT 10SM SCT019 OVC055 19/16 A3013 RMK AO2 T01890156
KBVY 220153Z AUTO 09008KT 10SM BKN019 19/16 A3014 RMK AO2 SLP201 T01890156
KBVY 220131Z AUTO 10005KT 10SM BKN021 19/16 A3014 RMK AO2 T01890156
KBVY 220117Z AUTO 09007KT 10SM SCT023 19/16 A3014 RMK AO2 T01890156
KBVY 220053Z 08007KT 10SM BKN021 19/16 A3014 RMK AO2 SLP201 T01890161
KBVY 220028Z 10006KT 10SM BKN020 19/16 A3014 RMK AO2 T01940161
KBVY 212353Z 10004KT 10SM SCT026 19/16 A3014 RMK AO2 SLP199 T01940161 10228 20194 51005
KBVY 212337Z 11007KT 10SM SCT026 20/16 A3014 RMK AO2 T02000161
KBVY 212253Z 10011KT 10SM BKN024 21/16 A3014 RMK AO2 SLP199 T02060161
KBVY 212215Z 10010KT 10SM BKN023 21/16 A3013 RMK AO2 T02060161
KBVY 212153Z 12009KT 10SM SCT025 21/16 A3013 RMK AO2 SLP198 T02060156
KBVY 212105Z 12010KT 10SM BKN022 22/16 A3012 RMK AO2 T02170161
KBVY 212053Z 12010KT 10SM SCT022 22/16 A3012 RMK AO2 SLP194 T02170161 58012